Time;durP1;ratioP1;P1;durP2;ratioP2;P2;SDS_P1;SDS_P2;PMS_P1;PMS_P2;Temp;Humidity;BMP_temperature;BMP_pressure;BME280_temperature;BME280_humidity;BME280_pressure;Samples;Min_cycle;Max_cycle;Signal;HPM_P1;HPM_P2
2024/01/27 00:00:57;;;;;;;5.07;1.35;;;;;;;1.00;nan;97460.63;2066633;28;20051;-60
2024/01/27 00:01:59;;;;;;;8.23;1.70;;;;;;;0.98;nan;97454.63;2067207;28;20069;-60
2024/01/27 00:03:00;;;;;;;6.43;2.08;;;;;;;0.98;nan;97452.91;2066517;28;20054;-60
2024/01/27 00:04:01;;;;;;;8.65;1.50;;;;;;;0.94;nan;97463.97;2066628;28;20061;-60
2024/01/27 00:05:02;;;;;;;5.28;1.40;;;;;;;0.87;nan;97459.59;2066467;28;20065;-60
2024/01/27 00:06:03;;;;;;;8.10;1.80;;;;;;;0.82;nan;97459.53;2067018;28;20038;-60
2024/01/27 00:07:05;;;;;;;6.68;1.67;;;;;;;0.77;nan;97453.47;2066191;28;20384;-60
2024/01/27 00:08:06;;;;;;;5.70;1.85;;;;;;;0.77;nan;97453.47;2066685;28;20055;-60
2024/01/27 00:09:07;;;;;;;4.90;1.50;;;;;;;0.75;nan;97450.06;2067150;28;20046;-60
2024/01/27 00:10:08;;;;;;;3.05;1.33;;;;;;;0.72;nan;97451.69;2067059;28;20045;-60
2024/01/27 00:11:11;;;;;;;6.30;1.77;;;;;;;0.68;nan;97445.69;2066663;28;20139;-60
2024/01/27 00:12:12;;;;;;;5.95;1.75;;;;;;;0.64;nan;97451.56;2066593;28;20050;-60
2024/01/27 00:13:13;;;;;;;7.90;1.50;;;;;;;0.58;nan;97456.59;2067165;28;20055;-60
2024/01/27 00:14:14;;;;;;;5.15;1.70;;;;;;;0.53;nan;97455.66;2066673;28;20050;-60
2024/01/27 00:15:16;;;;;;;6.05;1.65;;;;;;;0.50;nan;97458.19;2067128;28;20092;-60
2024/01/27 00:16:18;;;;;;;5.25;1.50;;;;;;;0.50;nan;97461.59;2067209;28;20368;-60
2024/01/27 00:17:23;;;;;;;5.45;1.45;;;;;;;0.47;nan;97461.56;2067171;28;20038;-60
2024/01/27 00:18:24;;;;;;;6.22;1.75;;;;;;;0.42;nan;97458.06;2067117;28;20050;-60
2024/01/27 00:19:25;;;;;;;7.75;1.92;;;;;;;0.41;nan;97461.47;2067182;28;20509;-60
2024/01/27 00:20:27;;;;;;;4.78;1.83;;;;;;;0.42;nan;97463.16;2066945;28;20050;-60
2024/01/27 00:21:28;;;;;;;7.13;1.73;;;;;;;0.41;nan;97464.88;2067454;28;20061;-60
2024/01/27 00:22:30;;;;;;;3.55;1.55;;;;;;;0.39;nan;97465.69;2066871;28;20062;-59
2024/01/27 00:23:32;;;;;;;3.63;1.48;;;;;;;0.39;nan;97468.25;2066967;28;20046;-60
2024/01/27 00:24:33;;;;;;;7.00;1.80;;;;;;;0.36;nan;97470.75;2066360;28;20050;-60
2024/01/27 00:25:34;;;;;;;4.18;1.80;;;;;;;0.41;nan;97469.13;2066902;28;20038;-60
2024/01/27 00:26:35;;;;;;;6.95;1.90;;;;;;;0.37;nan;97470.75;2066889;28;20051;-59
2024/01/27 00:27:36;;;;;;;4.30;1.83;;;;;;;0.29;nan;97466.38;2058102;28;20070;-61
2024/01/27 00:28:37;;;;;;;9.88;2.28;;;;;;;0.27;nan;97475.69;2058294;28;20415;-60
2024/01/27 00:29:38;;;;;;;7.78;2.20;;;;;;;0.28;nan;97477.44;2066562;28;20062;-60
2024/01/27 00:30:39;;;;;;;4.57;1.70;;;;;;;0.21;nan;97476.44;2066954;28;20121;-60
2024/01/27 00:31:40;;;;;;;10.10;2.20;;;;;;;0.17;nan;97479.81;2066469;28;20049;-60
2024/01/27 00:32:41;;;;;;;7.13;2.03;;;;;;;0.10;nan;97473.72;2066312;28;20061;-60
2024/01/27 00:33:42;;;;;;;7.88;2.08;;;;;;;0.03;nan;97483.78;2066642;28;20058;-62
2024/01/27 00:34:44;;;;;;;5.65;1.77;;;;;;;0.00;nan;97479.53;2066847;28;20045;-60
2024/01/27 00:35:45;;;;;;;5.15;2.00;;;;;;;-0.03;nan;97482.88;2066971;28;20046;-60
2024/01/27 00:36:48;;;;;;;5.72;1.90;;;;;;;-0.10;nan;97487.84;2066820;28;20174;-61
2024/01/27 00:37:49;;;;;;;5.50;2.20;;;;;;;-0.09;nan;97481.88;2066166;28;20050;-60
2024/01/27 00:38:50;;;;;;;8.90;2.15;;;;;;;-0.13;nan;97480.97;2066822;28;20050;-60
2024/01/27 00:39:51;;;;;;;6.57;2.05;;;;;;;-0.11;nan;97483.53;2066854;28;20410;-60
2024/01/27 00:40:53;;;;;;;6.53;2.00;;;;;;;-0.13;nan;97482.69;2066384;28;20042;-60
2024/01/27 00:41:55;;;;;;;9.60;2.13;;;;;;;-0.15;nan;97480.09;2066119;28;20069;-60
2024/01/27 00:42:56;;;;;;;8.45;2.10;;;;;;;-0.16;nan;97485.16;2066712;28;20050;-60
2024/01/27 00:43:57;;;;;;;10.43;1.98;;;;;;;-0.17;nan;97483.44;2066855;28;20038;-60
2024/01/27 00:44:58;;;;;;;6.93;2.20;;;;;;;-0.19;nan;97482.53;2066895;28;20049;-60
2024/01/27 00:45:59;;;;;;;9.02;2.92;;;;;;;-0.18;nan;97486.84;2067066;28;20053;-60
2024/01/27 00:47:00;;;;;;;9.63;2.10;;;;;;;-0.18;nan;97484.28;2066819;28;20383;-60
2024/01/27 00:48:02;;;;;;;8.45;1.92;;;;;;;-0.22;nan;97484.19;2066836;28;20043;-60
2024/01/27 00:49:03;;;;;;;9.45;2.22;;;;;;;-0.23;nan;97487.59;2066198;28;20419;-60
2024/01/27 00:50:05;;;;;;;8.15;2.50;;;;;;;-0.24;nan;97483.34;2066519;28;20117;-60
2024/01/27 00:51:06;;;;;;;6.95;2.30;;;;;;;-0.26;nan;97485.00;2066285;28;20047;-60
2024/01/27 00:52:07;;;;;;;4.40;2.03;;;;;;;-0.28;nan;97480.69;2066788;28;20050;-60
2024/01/27 00:53:09;;;;;;;11.40;2.33;;;;;;;-0.33;nan;97480.59;2066508;28;20053;-60
2024/01/27 00:54:10;;;;;;;5.55;2.10;;;;;;;-0.36;nan;97475.44;2066746;28;20046;-59
2024/01/27 00:55:11;;;;;;;6.57;2.22;;;;;;;-0.40;nan;97476.22;2066858;28;20054;-59
2024/01/27 00:56:12;;;;;;;8.25;2.60;;;;;;;-0.37;nan;97483.94;2066448;28;20050;-60
2024/01/27 00:57:13;;;;;;;9.23;2.85;;;;;;;-0.37;nan;97481.38;2066911;28;20406;-60
2024/01/27 00:58:14;;;;;;;8.02;2.83;;;;;;;-0.39;nan;97485.59;2066281;28;20057;-60
2024/01/27 00:59:15;;;;;;;4.30;2.42;;;;;;;-0.38;nan;97482.19;2066019;28;20061;-60
2024/01/27 01:00:16;;;;;;;9.10;3.05;;;;;;;-0.41;nan;97487.25;2066771;28;20046;-60
2024/01/27 01:01:17;;;;;;;9.10;2.78;;;;;;;-0.41;nan;97489.78;2066574;28;20042;-60
2024/01/27 01:02:19;;;;;;;6.72;2.08;;;;;;;-0.46;nan;97488.84;2066735;28;20178;-60
2024/01/27 01:03:20;;;;;;;5.20;2.72;;;;;;;-0.51;nan;97486.22;2066912;28;20049;-60
2024/01/27 01:04:21;;;;;;;5.95;2.50;;;;;;;-0.48;nan;97493.06;2066713;28;20041;-60
2024/01/27 01:05:22;;;;;;;8.13;2.50;;;;;;;-0.52;nan;97488.72;2065791;28;20050;-60
2024/01/27 01:06:23;;;;;;;4.38;2.10;;;;;;;-0.50;nan;97495.59;2066613;28;20046;-60
2024/01/27 01:07:24;;;;;;;6.40;2.80;;;;;;;-0.57;nan;97488.63;2066676;28;20050;-60
2024/01/27 01:08:25;;;;;;;10.30;2.50;;;;;;;-0.62;nan;97499.56;2066536;28;20042;-60
2024/01/27 01:09:26;;;;;;;7.25;2.22;;;;;;;-0.61;nan;97493.66;2066028;28;20054;-60
2024/01/27 01:10:28;;;;;;;7.88;2.60;;;;;;;-0.66;nan;97485.91;2065980;28;20046;-60
2024/01/27 01:11:29;;;;;;;8.60;2.88;;;;;;;-0.72;nan;97489.19;2066341;28;20050;-60
2024/01/27 01:12:30;;;;;;;7.35;2.50;;;;;;;-0.77;nan;97495.88;2066473;28;20421;-60
2024/01/27 01:13:31;;;;;;;7.78;2.60;;;;;;;-0.75;nan;97488.25;2066114;28;20057;-61
2024/01/27 01:14:32;;;;;;;7.95;2.55;;;;;;;-0.73;nan;97482.34;2066785;28;20050;-59
2024/01/27 01:15:33;;;;;;;7.15;2.28;;;;;;;-0.64;nan;97486.81;2066758;28;20069;-60
2024/01/27 01:16:34;;;;;;;6.88;2.72;;;;;;;-0.62;nan;97485.13;2066606;28;20057;-59
2024/01/27 01:17:35;;;;;;;6.80;2.17;;;;;;;-0.52;nan;97491.28;2066586;28;20049;-60
2024/01/27 01:18:37;;;;;;;6.85;2.20;;;;;;;-0.49;nan;97494.75;2066421;28;20053;-60
2024/01/27 01:19:38;;;;;;;10.27;2.78;;;;;;;-0.47;nan;97497.34;2066509;28;20047;-60
2024/01/27 01:20:39;;;;;;;6.22;1.95;;;;;;;-0.41;nan;97489.78;2066611;28;20612;-59
2024/01/27 01:21:40;;;;;;;10.63;2.75;;;;;;;-0.39;nan;97493.25;2065948;28;20058;-60
2024/01/27 01:22:42;;;;;;;10.35;2.63;;;;;;;-0.40;nan;97491.53;2066393;28;20054;-60
2024/01/27 01:23:43;;;;;;;7.53;2.72;;;;;;;-0.39;nan;97490.69;2066600;28;20050;-64
2024/01/27 01:24:44;;;;;;;5.25;2.17;;;;;;;-0.38;nan;97494.09;2066678;28;20046;-60
2024/01/27 01:25:45;;;;;;;6.05;3.05;;;;;;;-0.37;nan;97494.16;2066033;28;20383;-60
2024/01/27 01:26:46;;;;;;;9.68;2.30;;;;;;;-0.35;nan;97497.56;2066151;28;20410;-60
2024/01/27 01:27:49;;;;;;;5.82;2.25;;;;;;;-0.36;nan;97495.84;2066758;28;20050;-60
2024/01/27 01:28:50;;;;;;;6.20;2.20;;;;;;;-0.34;nan;97489.09;2066480;28;20046;-61
2024/01/27 01:29:51;;;;;;;4.68;2.15;;;;;;;-0.29;nan;97501.97;2066428;28;20046;-59
2024/01/27 01:30:52;;;;;;;9.07;2.47;;;;;;;-0.28;nan;97498.56;2066504;28;20046;-60
2024/01/27 01:31:54;;;;;;;7.40;2.05;;;;;;;-0.27;nan;97501.16;2066572;28;20515;-59
2024/01/27 01:32:55;;;;;;;7.13;2.25;;;;;;;-0.23;nan;97500.38;2066207;28;20054;-59
2024/01/27 01:33:56;;;;;;;7.93;1.98;;;;;;;-0.21;nan;97500.41;2066629;28;20050;-60
2024/01/27 01:34:57;;;;;;;10.75;2.45;;;;;;;-0.18;nan;97499.59;2066136;28;20065;-60
2024/01/27 01:35:58;;;;;;;6.50;2.10;;;;;;;-0.14;nan;97494.56;2066081;28;20065;-60
2024/01/27 01:37:01;;;;;;;4.90;1.83;;;;;;;-0.12;nan;97492.91;2066531;28;20426;-60
2024/01/27 01:38:02;;;;;;;8.57;2.10;;;;;;;-0.13;nan;97496.31;2066494;28;20046;-60
2024/01/27 01:39:04;;;;;;;8.27;2.85;;;;;;;-0.09;nan;97500.63;2065486;28;20414;-59
2024/01/27 01:40:07;;;;;;;4.88;2.10;;;;;;;-0.09;nan;97497.22;2066114;28;20103;-60
2024/01/27 01:41:08;;;;;;;6.72;2.08;;;;;;;-0.11;nan;97493.75;2066451;28;20045;-60
2024/01/27 01:42:10;;;;;;;6.63;2.20;;;;;;;-0.11;nan;97503.97;2066199;28;20057;-60
2024/01/27 01:43:12;;;;;;;6.57;2.10;;;;;;;-0.13;nan;97501.41;2066460;28;20483;-60
2024/01/27 01:44:13;;;;;;;8.85;2.30;;;;;;;-0.12;nan;97497.16;2065757;28;20061;-60
2024/01/27 01:45:14;;;;;;;8.63;2.33;;;;;;;-0.09;nan;97499.75;2066535;28;20368;-60
2024/01/27 01:46:15;;;;;;;7.63;1.95;;;;;;;-0.04;nan;97503.25;2066319;28;20077;-60
2024/01/27 01:47:16;;;;;;;6.75;2.33;;;;;;;-0.02;nan;97506.72;2066329;28;20038;-60
2024/01/27 01:48:17;;;;;;;7.05;2.40;;;;;;;0.06;nan;97510.28;2066254;28;20042;-60
2024/01/27 01:49:18;;;;;;;6.88;2.10;;;;;;;0.11;nan;97508.66;2049753;29;20051;-60
2024/01/27 01:50:20;;;;;;;8.00;2.25;;;;;;;0.16;nan;97516.38;2042095;28;20055;-60
2024/01/27 01:51:21;;;;;;;8.20;2.38;;;;;;;0.18;nan;97512.16;2057190;28;20055;-60
2024/01/27 01:52:22;;;;;;;6.25;2.17;;;;;;;0.21;nan;97514.78;2049339;29;20062;-60
2024/01/27 01:53:23;;;;;;;4.72;1.90;;;;;;;0.21;nan;97512.22;2049370;29;20051;-60
2024/01/27 01:54:27;;;;;;;5.80;1.65;;;;;;;0.18;nan;97517.28;2066403;28;20501;-60
2024/01/27 01:55:28;;;;;;;7.65;1.92;;;;;;;0.16;nan;97511.28;2066214;28;20054;-60
2024/01/27 01:56:29;;;;;;;7.15;2.40;;;;;;;0.13;nan;97516.34;2065188;28;20058;-60
2024/01/27 01:57:31;;;;;;;6.13;1.60;;;;;;;0.12;nan;97520.59;2049588;29;20502;-61
2024/01/27 01:58:34;;;;;;;8.98;2.58;;;;;;;0.14;nan;97528.28;2049658;28;20035;-60
2024/01/27 01:59:40;;;;;;;4.55;1.90;;;;;;;0.11;nan;97526.53;2057850;28;20091;-59
2024/01/27 02:00:41;;;;;;;7.97;2.08;;;;;;;0.11;nan;97525.69;2065658;28;20487;-60
2024/01/27 02:01:42;;;;;;;7.32;2.58;;;;;;;0.04;nan;97528.97;2065701;28;20058;-60
2024/01/27 02:02:45;;;;;;;10.93;2.10;;;;;;;0.03;nan;97528.09;2065953;28;20058;-60
2024/01/27 02:03:55;;;;;;;7.75;2.03;;;;;;;-0.02;nan;97517.78;2066142;28;20054;-60
2024/01/27 02:04:56;;;;;;;10.70;2.55;;;;;;;-0.01;nan;97521.19;2066310;28;20478;-61
2024/01/27 02:05:57;;;;;;;12.00;2.65;;;;;;;-0.05;nan;97517.72;2065995;28;20066;-60
2024/01/27 02:06:58;;;;;;;13.77;2.13;;;;;;;-0.09;nan;97517.66;2065574;28;20051;-59
2024/01/27 02:08:00;;;;;;;9.45;2.10;;;;;;;-0.10;nan;97518.47;2065557;28;20061;-59
2024/01/27 02:09:01;;;;;;;5.45;1.67;;;;;;;-0.14;nan;97521.81;2065953;28;20054;-59
2024/01/27 02:10:03;;;;;;;7.70;2.03;;;;;;;-0.15;nan;97526.06;2065087;28;20058;-59
2024/01/27 02:11:04;;;;;;;6.15;2.10;;;;;;;-0.17;nan;97529.41;2049498;29;20113;-59
2024/01/27 02:12:05;;;;;;;6.75;2.40;;;;;;;-0.18;nan;97528.53;2049038;28;20535;-60
2024/01/27 02:13:20;;;;;;;3.97;2.00;;;;;;;-0.20;nan;97526.78;2065538;28;20054;-60
2024/01/27 02:14:25;;;;;;;8.77;2.10;;;;;;;-0.20;nan;97534.47;2065447;28;20502;-59
2024/01/27 02:15:26;;;;;;;6.95;2.20;;;;;;;-0.19;nan;97533.63;2066168;28;20041;-60
2024/01/27 02:16:27;;;;;;;8.07;2.17;;;;;;;-0.22;nan;97536.97;2066042;28;20446;-60
2024/01/27 02:17:28;;;;;;;3.75;2.10;;;;;;;-0.30;nan;97530.84;2066157;28;20042;-61
2024/01/27 02:18:29;;;;;;;5.18;1.63;;;;;;;-0.38;nan;97538.34;2066134;28;20042;-60
2024/01/27 02:19:30;;;;;;;6.93;2.30;;;;;;;-0.45;nan;97545.03;2065910;28;20518;-60
2024/01/27 02:20:31;;;;;;;8.32;2.50;;;;;;;-0.52;nan;97545.72;2065592;28;20054;-60
2024/01/27 02:21:33;;;;;;;5.53;1.85;;;;;;;-0.59;nan;97546.41;2065383;28;20050;-60
2024/01/27 02:22:34;;;;;;;12.10;2.75;;;;;;;-0.67;nan;97543.72;2065586;28;20046;-60
2024/01/27 02:23:35;;;;;;;5.10;2.45;;;;;;;-0.68;nan;97547.09;2066220;28;20046;-60
2024/01/27 02:24:36;;;;;;;9.32;2.50;;;;;;;-0.71;nan;97557.22;2066263;28;20507;-60
2024/01/27 02:25:37;;;;;;;7.40;2.30;;;;;;;-0.75;nan;97552.03;2065981;28;20045;-60
2024/01/27 02:26:38;;;;;;;6.72;2.45;;;;;;;-0.78;nan;97546.84;2065118;28;20054;-60
2024/01/27 02:27:40;;;;;;;5.18;2.17;;;;;;;-0.78;nan;97550.25;2066310;28;20049;-61
2024/01/27 02:28:41;;;;;;;5.30;2.30;;;;;;;-0.80;nan;97551.06;2066091;28;20057;-59
2024/01/27 02:29:42;;;;;;;4.85;1.58;;;;;;;-0.78;nan;97557.06;2065372;28;20503;-59
2024/01/27 02:30:43;;;;;;;7.47;2.25;;;;;;;-0.76;nan;97551.16;2065763;28;20050;-60
2024/01/27 02:31:44;;;;;;;3.63;1.73;;;;;;;-0.76;nan;97557.97;2066168;28;20042;-60
2024/01/27 02:32:45;;;;;;;9.55;2.35;;;;;;;-0.76;nan;97550.31;2066178;28;20054;-60
2024/01/27 02:33:46;;;;;;;7.65;2.30;;;;;;;-0.78;nan;97547.72;2066100;28;20050;-60
2024/01/27 02:34:47;;;;;;;6.85;2.70;;;;;;;-0.78;nan;97555.38;2066101;28;20395;-60
2024/01/27 02:35:48;;;;;;;12.73;2.53;;;;;;;-0.78;nan;97557.91;2066033;28;20065;-60
2024/01/27 02:36:49;;;;;;;4.78;2.20;;;;;;;-0.77;nan;97558.81;2066172;28;20038;-60
2024/01/27 02:37:51;;;;;;;7.78;2.28;;;;;;;-0.78;nan;97563.03;2066031;28;20038;-60
2024/01/27 02:38:52;;;;;;;7.13;2.42;;;;;;;-0.80;nan;97561.25;2065492;28;20061;-60
2024/01/27 02:39:53;;;;;;;7.03;2.42;;;;;;;-0.82;nan;97558.69;2065321;28;20047;-60
2024/01/27 02:40:54;;;;;;;9.65;2.83;;;;;;;-0.83;nan;97562.06;2065236;28;20054;-60
2024/01/27 02:41:55;;;;;;;7.88;2.95;;;;;;;-0.83;nan;97562.06;2065845;28;20555;-60
2024/01/27 02:42:56;;;;;;;9.27;2.58;;;;;;;-0.85;nan;97562.88;2065817;28;20058;-60
2024/01/27 02:43:57;;;;;;;6.05;2.45;;;;;;;-0.86;nan;97562.00;2065391;28;20061;-60
2024/01/27 02:44:58;;;;;;;7.53;2.58;;;;;;;-0.88;nan;97568.78;2066099;28;20053;-60
2024/01/27 02:46:00;;;;;;;10.65;2.72;;;;;;;-0.86;nan;97562.00;2065748;28;20046;-60
2024/01/27 02:47:01;;;;;;;11.27;2.67;;;;;;;-0.85;nan;97561.19;2064994;28;20270;-60
2024/01/27 02:48:02;;;;;;;8.57;2.40;;;;;;;-0.87;nan;97560.28;2065796;28;20479;-60
2024/01/27 02:49:03;;;;;;;8.52;2.45;;;;;;;-0.85;nan;97557.78;2065692;28;20045;-61
2024/01/27 02:50:06;;;;;;;11.13;2.70;;;;;;;-0.90;nan;97563.63;2065657;28;20065;-60
2024/01/27 02:51:07;;;;;;;6.70;2.35;;;;;;;-0.93;nan;97560.16;2066199;28;20411;-60
2024/01/27 02:52:08;;;;;;;9.07;2.70;;;;;;;-0.95;nan;97555.00;2065362;28;20054;-61
2024/01/27 02:53:10;;;;;;;6.22;3.10;;;;;;;-0.98;nan;97560.03;2065747;28;20031;-60
2024/01/27 02:54:11;;;;;;;6.20;2.53;;;;;;;-1.02;nan;97558.22;2065335;28;20058;-60
2024/01/27 02:55:12;;;;;;;5.78;2.53;;;;;;;-1.02;nan;97557.38;2065990;28;20532;-60
2024/01/27 02:56:13;;;;;;;7.45;2.47;;;;;;;-1.05;nan;97560.72;2065288;28;20054;-60
2024/01/27 02:57:16;;;;;;;9.48;3.00;;;;;;;-1.13;nan;97557.13;2065593;28;20486;-60
2024/01/27 02:58:17;;;;;;;6.95;2.58;;;;;;;-1.14;nan;97561.38;2065189;28;20061;-60
2024/01/27 02:59:18;;;;;;;6.47;2.15;;;;;;;-1.19;nan;97569.72;2065752;28;20390;-60
2024/01/27 03:00:20;;;;;;;7.13;2.63;;;;;;;-1.12;nan;97569.06;2065530;28;20054;-60
2024/01/27 03:01:21;;;;;;;5.68;2.95;;;;;;;-0.97;nan;97569.41;2065210;28;20050;-59
2024/01/27 03:02:22;;;;;;;9.27;2.80;;;;;;;-0.87;nan;97570.47;2064845;28;20054;-60
2024/01/27 03:03:23;;;;;;;10.68;3.53;;;;;;;-0.82;nan;97571.44;2065099;28;20502;-60
2024/01/27 03:04:24;;;;;;;13.30;3.47;;;;;;;-0.81;nan;97572.31;2065113;28;20061;-60
2024/01/27 03:05:25;;;;;;;15.95;2.80;;;;;;;-0.78;nan;97575.78;2065874;28;20069;-61
2024/01/27 03:06:26;;;;;;;6.43;3.00;;;;;;;-0.73;nan;97574.19;2064736;28;20061;-60
2024/01/27 03:07:27;;;;;;;8.45;2.78;;;;;;;-0.69;nan;97578.56;2065757;28;20045;-60
2024/01/27 03:08:28;;;;;;;10.27;3.78;;;;;;;-0.70;nan;97576.81;2065864;28;20371;-60
2024/01/27 03:09:30;;;;;;;9.75;2.65;;;;;;;-0.65;nan;97587.13;2065796;28;20038;-60
2024/01/27 03:10:31;;;;;;;8.88;2.50;;;;;;;-0.64;nan;97581.22;2065607;28;20050;-60
2024/01/27 03:11:32;;;;;;;7.45;2.60;;;;;;;-0.59;nan;97582.16;2064593;28;20410;-59
2024/01/27 03:12:33;;;;;;;8.45;2.58;;;;;;;-0.60;nan;97577.03;2065648;28;20042;-60
2024/01/27 03:13:34;;;;;;;10.20;2.50;;;;;;;-0.58;nan;97590.69;2066043;28;20050;-60
2024/01/27 03:14:35;;;;;;;10.70;2.60;;;;;;;-0.59;nan;97581.28;2065474;28;20068;-60
2024/01/27 03:15:37;;;;;;;7.15;2.95;;;;;;;-0.56;nan;97577.13;2065342;28;20058;-60
2024/01/27 03:16:38;;;;;;;6.47;2.55;;;;;;;-0.58;nan;97588.13;2064726;28;20062;-60
2024/01/27 03:17:39;;;;;;;13.10;3.38;;;;;;;-0.55;nan;97589.06;2056853;28;20506;-60
2024/01/27 03:18:40;;;;;;;9.52;3.60;;;;;;;-0.57;nan;97583.03;2057135;28;20035;-60
2024/01/27 03:19:41;;;;;;;10.32;2.92;;;;;;;-0.56;nan;97594.09;2065803;28;20042;-60
2024/01/27 03:20:42;;;;;;;4.88;2.70;;;;;;;-0.58;nan;97601.75;2065439;28;20054;-59
2024/01/27 03:21:44;;;;;;;6.55;3.10;;;;;;;-0.59;nan;97597.44;2056652;28;20057;-60
2024/01/27 03:22:45;;;;;;;8.23;2.88;;;;;;;-0.60;nan;97600.00;2056507;28;20399;-60
2024/01/27 03:23:46;;;;;;;6.82;2.95;;;;;;;-0.62;nan;97605.03;2065702;28;20042;-60
2024/01/27 03:24:47;;;;;;;10.80;3.53;;;;;;;-0.64;nan;97599.06;2065849;28;20046;-60
2024/01/27 03:25:48;;;;;;;11.77;3.38;;;;;;;-0.66;nan;97598.16;2064738;28;20058;-60
2024/01/27 03:26:49;;;;;;;6.93;3.40;;;;;;;-0.71;nan;97592.94;2065036;28;20058;-60
2024/01/27 03:27:51;;;;;;;10.48;3.15;;;;;;;-0.68;nan;97593.03;2065577;28;20038;-59
2024/01/27 03:28:52;;;;;;;15.13;4.63;;;;;;;-0.70;nan;97597.22;2065491;28;20046;-60
2024/01/27 03:29:53;;;;;;;6.85;2.83;;;;;;;-0.69;nan;97596.41;2065577;28;20493;-60
2024/01/27 03:30:54;;;;;;;8.23;3.80;;;;;;;-0.68;nan;97600.66;2065715;28;20057;-60
2024/01/27 03:31:55;;;;;;;12.82;4.05;;;;;;;-0.69;nan;97598.97;2064969;28;20058;-60
2024/01/27 03:32:56;;;;;;;11.65;3.53;;;;;;;-0.67;nan;97598.97;2065245;28;20050;-60
2024/01/27 03:34:00;;;;;;;11.07;3.80;;;;;;;-0.73;nan;97599.69;2065208;28;20054;-60
2024/01/27 03:35:02;;;;;;;10.90;4.13;;;;;;;-0.70;nan;97597.22;2065235;28;20050;-59
2024/01/27 03:36:11;;;;;;;8.38;3.53;;;;;;;-0.73;nan;97596.28;2065176;28;20406;-60
2024/01/27 03:37:12;;;;;;;8.95;2.92;;;;;;;-0.74;nan;97600.53;2057110;28;20046;-60
2024/01/27 03:38:13;;;;;;;5.82;2.92;;;;;;;-0.73;nan;97602.25;2056661;28;20046;-60
2024/01/27 03:39:14;;;;;;;13.20;3.30;;;;;;;-0.76;nan;97606.44;2065577;28;20047;-60
2024/01/27 03:40:15;;;;;;;8.30;3.33;;;;;;;-0.79;nan;97604.69;2064689;28;20436;-60
2024/01/27 03:41:16;;;;;;;8.05;3.28;;;;;;;-0.79;nan;97607.22;2065490;28;20046;-59
2024/01/27 03:42:17;;;;;;;7.60;3.10;;;;;;;-0.81;nan;97608.00;2064889;28;20058;-60
2024/01/27 03:43:18;;;;;;;10.88;3.80;;;;;;;-0.82;nan;97604.59;2065761;28;20042;-60
2024/01/27 03:44:20;;;;;;;10.23;3.72;;;;;;;-0.87;nan;97607.88;2065553;28;20042;-60
2024/01/27 03:45:21;;;;;;;15.60;3.45;;;;;;;-0.95;nan;97600.91;2064967;28;20054;-60
2024/01/27 03:46:22;;;;;;;11.25;3.90;;;;;;;-1.01;nan;97605.00;2065558;28;20061;-60
2024/01/27 03:47:23;;;;;;;12.02;3.75;;;;;;;-1.04;nan;97605.81;2065754;28;20050;-60
2024/01/27 03:48:24;;;;;;;10.35;3.63;;;;;;;-1.04;nan;97608.34;2065300;28;20061;-60
2024/01/27 03:49:25;;;;;;;11.15;3.60;;;;;;;-1.06;nan;97606.59;2065614;28;20042;-60
2024/01/27 03:50:26;;;;;;;16.20;3.50;;;;;;;-1.10;nan;97605.63;2065265;28;20054;-59
2024/01/27 03:51:28;;;;;;;8.00;3.28;;;;;;;-1.11;nan;97609.88;2065782;28;20034;-60
2024/01/27 03:52:29;;;;;;;7.63;3.60;;;;;;;-1.12;nan;97608.16;2065215;28;20058;-59
2024/01/27 03:53:30;;;;;;;7.95;3.05;;;;;;;-1.15;nan;97607.22;2064866;28;20046;-60
2024/01/27 03:54:31;;;;;;;8.75;3.20;;;;;;;-1.18;nan;97609.69;2065680;28;20049;-60
2024/01/27 03:55:34;;;;;;;12.48;3.30;;;;;;;-1.16;nan;97608.03;2065494;28;20053;-60
2024/01/27 03:56:35;;;;;;;10.65;2.95;;;;;;;-1.16;nan;97615.69;2064720;28;20061;-59
2024/01/27 03:57:36;;;;;;;9.25;3.60;;;;;;;-1.16;nan;97619.09;2065800;28;20065;-60
2024/01/27 03:58:38;;;;;;;10.73;3.42;;;;;;;-1.15;nan;97612.31;2065573;28;20043;-60
2024/01/27 03:59:42;;;;;;;11.07;3.40;;;;;;;-1.14;nan;97612.34;2064679;28;20058;-60
2024/01/27 04:00:43;;;;;;;10.00;3.83;;;;;;;-1.15;nan;97614.84;2065509;28;20046;-60
2024/01/27 04:01:44;;;;;;;10.80;3.55;;;;;;;-1.16;nan;97618.25;2065012;28;20494;-63
2024/01/27 04:02:46;;;;;;;10.82;3.75;;;;;;;-1.17;nan;97614.84;2064925;28;20053;-59
2024/01/27 04:03:47;;;;;;;10.82;3.03;;;;;;;-1.17;nan;97617.38;2065557;28;20046;-60
2024/01/27 04:04:48;;;;;;;11.70;3.38;;;;;;;-1.16;nan;97620.78;2065663;28;20371;-60
2024/01/27 04:05:49;;;;;;;10.38;3.63;;;;;;;-1.16;nan;97618.25;2065829;28;20499;-60
2024/01/27 04:06:50;;;;;;;11.82;3.55;;;;;;;-1.18;nan;97615.63;2065759;28;20049;-60
2024/01/27 04:07:51;;;;;;;9.23;3.33;;;;;;;-1.17;nan;97616.53;2064903;28;20065;-59
2024/01/27 04:08:52;;;;;;;15.45;3.50;;;;;;;-1.18;nan;97623.28;2065829;28;20038;-60
2024/01/27 04:09:53;;;;;;;12.75;3.45;;;;;;;-1.20;nan;97617.31;2065589;28;20038;-60
2024/01/27 04:10:54;;;;;;;14.98;4.97;;;;;;;-1.20;nan;97616.47;2065684;28;20413;-60
2024/01/27 04:11:55;;;;;;;10.38;3.30;;;;;;;-1.22;nan;97618.97;2065650;28;20046;-59
2024/01/27 04:12:57;;;;;;;14.80;3.45;;;;;;;-1.23;nan;97622.34;2066233;28;20054;-62
2024/01/27 04:13:58;;;;;;;9.43;3.70;;;;;;;-1.29;nan;97611.97;2066307;28;20396;-59
2024/01/27 04:14:59;;;;;;;9.70;3.15;;;;;;;-1.26;nan;97618.84;2066503;28;20042;-60
2024/01/27 04:16:01;;;;;;;7.63;3.35;;;;;;;-1.28;nan;97613.72;2066051;28;20478;-61
2024/01/27 04:17:02;;;;;;;10.13;3.50;;;;;;;-1.32;nan;97611.91;2066795;28;20046;-60
2024/01/27 04:18:08;;;;;;;10.45;3.78;;;;;;;-1.33;nan;97613.59;2066487;28;20058;-60
2024/01/27 04:19:09;;;;;;;10.27;3.40;;;;;;;-1.33;nan;97617.84;2066025;28;20054;-65
2024/01/27 04:20:10;;;;;;;11.18;4.03;;;;;;;-1.36;nan;97616.06;2067031;28;20051;-67
2024/01/27 04:21:11;;;;;;;7.82;3.60;;;;;;;-1.36;nan;97610.13;2066747;28;20038;-67
2024/01/27 04:22:12;;;;;;;9.50;3.28;;;;;;;-1.34;nan;97614.44;2066492;28;20055;-60
2024/01/27 04:23:14;;;;;;;12.45;3.75;;;;;;;-1.36;nan;97607.56;2066190;28;20065;-60
2024/01/27 04:24:15;;;;;;;13.93;3.60;;;;;;;-1.30;nan;97605.16;2066140;28;20054;-61
2024/01/27 04:25:16;;;;;;;11.07;3.55;;;;;;;-1.26;nan;97608.63;2066674;28;20046;-65
2024/01/27 04:26:17;;;;;;;8.10;3.38;;;;;;;-1.27;nan;97609.47;2066641;28;20050;-60
2024/01/27 04:27:18;;;;;;;7.55;3.30;;;;;;;-1.28;nan;97605.19;2065916;28;20415;-60
2024/01/27 04:28:19;;;;;;;12.75;3.30;;;;;;;-1.25;nan;97608.69;2065936;28;20055;-63
2024/01/27 04:29:20;;;;;;;8.48;3.72;;;;;;;-1.24;nan;97605.31;2066098;28;20077;-59
2024/01/27 04:30:21;;;;;;;9.27;3.28;;;;;;;-1.21;nan;97602.81;2065835;28;20057;-60
2024/01/27 04:31:22;;;;;;;10.93;4.05;;;;;;;-1.20;nan;97613.91;2065834;28;20050;-63
2024/01/27 04:32:24;;;;;;;9.70;3.35;;;;;;;-1.19;nan;97608.84;2066245;28;20387;-60
2024/01/27 04:33:25;;;;;;;10.50;3.30;;;;;;;-1.16;nan;97608.03;2066987;28;20493;-60
2024/01/27 04:34:26;;;;;;;12.30;4.15;;;;;;;-1.14;nan;97606.41;2067725;28;20054;-60
2024/01/27 04:35:27;;;;;;;10.45;3.45;;;;;;;-1.12;nan;97605.63;2067890;28;20050;-60
2024/01/27 04:36:29;;;;;;;8.82;3.15;;;;;;;-1.12;nan;97602.22;2068309;28;20034;-61
2024/01/27 04:37:30;;;;;;;9.50;3.58;;;;;;;-1.09;nan;97614.16;2067664;28;20047;-60
2024/01/27 04:38:31;;;;;;;9.93;3.50;;;;;;;-1.12;nan;97610.72;2068089;28;20042;-67
2024/01/27 04:39:32;;;;;;;8.63;2.50;;;;;;;-1.11;nan;97607.31;2067695;28;20506;-59
2024/01/27 04:40:35;;;;;;;9.55;3.45;;;;;;;-1.08;nan;97611.63;2067560;28;20053;-59
2024/01/27 04:41:42;;;;;;;8.90;3.83;;;;;;;-1.07;nan;97609.94;2068354;28;21051;-59
2024/01/27 04:42:43;;;;;;;10.30;4.00;;;;;;;-1.07;nan;97610.81;2067218;28;20062;-59
2024/01/27 04:43:44;;;;;;;10.25;3.65;;;;;;;-1.06;nan;97609.13;2069659;28;20039;-62
2024/01/27 04:44:46;;;;;;;11.50;3.15;;;;;;;-1.05;nan;97614.25;2067103;28;20042;-61
2024/01/27 04:45:47;;;;;;;12.65;4.10;;;;;;;-1.09;nan;97602.28;2066875;28;20053;-59
2024/01/27 04:46:48;;;;;;;10.38;3.20;;;;;;;-1.01;nan;97608.41;2066738;28;20486;-59
2024/01/27 04:47:49;;;;;;;15.65;3.50;;;;;;;-1.00;nan;97614.38;2066851;28;20042;-60
2024/01/27 04:48:51;;;;;;;11.75;3.13;;;;;;;-1.01;nan;97613.53;2066756;28;20061;-60
2024/01/27 04:49:52;;;;;;;6.70;2.90;;;;;;;-0.96;nan;97606.84;2066884;28;20501;-60
2024/01/27 04:50:53;;;;;;;9.25;2.83;;;;;;;-0.94;nan;97610.28;2067042;28;20049;-59
2024/01/27 04:51:54;;;;;;;9.80;2.80;;;;;;;-0.91;nan;97605.25;2066764;28;20046;-60
2024/01/27 04:52:55;;;;;;;7.97;3.20;;;;;;;-0.88;nan;97604.47;2066839;28;20058;-59
2024/01/27 04:53:56;;;;;;;8.13;3.13;;;;;;;-0.87;nan;97606.19;2066866;28;20508;-60
2024/01/27 04:54:58;;;;;;;13.18;3.50;;;;;;;-0.86;nan;97610.44;2066025;28;20054;-60
2024/01/27 04:55:59;;;;;;;8.15;3.47;;;;;;;-0.85;nan;97602.00;2066668;28;20391;-59